sensor_id;sensor_type;location;lat;lon;timestamp;pressure;altitude;pressure_sealevel;temperature;humidity
35716;BME280;21840;44.920;8.616;2023-05-10T00:01:52;99842.50;;;21.21;55.34
35716;BME280;21840;44.920;8.616;2023-05-10T00:04:17;99841.47;;;21.22;55.20
35716;BME280;21840;44.920;8.616;2023-05-10T00:06:43;99825.81;;;21.25;55.21
35716;BME280;21840;44.920;8.616;2023-05-10T00:09:08;99823.63;;;21.16;55.58
35716;BME280;21840;44.920;8.616;2023-05-10T00:11:34;99820.75;;;21.17;55.98
35716;BME280;21840;44.920;8.616;2023-05-10T00:13:59;99819.50;;;20.95;56.77
35716;BME280;21840;44.920;8.616;2023-05-10T00:16:25;99820.16;;;20.83;56.83
35716;BME280;21840;44.920;8.616;2023-05-10T00:18:50;99822.69;;;20.72;56.70
35716;BME280;21840;44.920;8.616;2023-05-10T00:21:16;99825.69;;;20.88;56.53
35716;BME280;21840;44.920;8.616;2023-05-10T00:23:41;99818.16;;;21.04;56.14
35716;BME280;21840;44.920;8.616;2023-05-10T00:26:07;99815.91;;;20.76;57.10
35716;BME280;21840;44.920;8.616;2023-05-10T00:28:32;99814.47;;;20.80;56.87
35716;BME280;21840;44.920;8.616;2023-05-10T00:30:58;99815.41;;;20.92;56.78
35716;BME280;21840;44.920;8.616;2023-05-10T00:33:23;99806.22;;;20.81;56.76
35716;BME280;21840;44.920;8.616;2023-05-10T00:35:49;99809.56;;;20.77;56.64
35716;BME280;21840;44.920;8.616;2023-05-10T00:38:14;99803.47;;;20.95;56.23
35716;BME280;21840;44.920;8.616;2023-05-10T00:40:40;99810.88;;;20.93;56.16
35716;BME280;21840;44.920;8.616;2023-05-10T00:43:11;99805.69;;;20.98;56.27
35716;BME280;21840;44.920;8.616;2023-05-10T00:45:37;99808.31;;;20.79;56.60
35716;BME280;21840;44.920;8.616;2023-05-10T00:48:03;99796.91;;;20.90;56.21
35716;BME280;21840;44.920;8.616;2023-05-10T00:50:30;99806.00;;;21.15;55.91
35716;BME280;21840;44.920;8.616;2023-05-10T00:52:56;99801.13;;;21.05;55.89
35716;BME280;21840;44.920;8.616;2023-05-10T00:55:22;99802.31;;;21.09;55.78
35716;BME280;21840;44.920;8.616;2023-05-10T00:57:47;99804.34;;;21.14;55.70
35716;BME280;21840;44.920;8.616;2023-05-10T01:00:13;99799.47;;;21.04;56.05
35716;BME280;21840;44.920;8.616;2023-05-10T01:02:44;99795.00;;;21.04;55.96
35716;BME280;21840;44.920;8.616;2023-05-10T01:05:09;99801.94;;;21.05;55.65
35716;BME280;21840;44.920;8.616;2023-05-10T01:07:35;99786.41;;;20.96;55.66
35716;BME280;21840;44.920;8.616;2023-05-10T01:10:02;99786.84;;;20.93;55.99
35716;BME280;21840;44.920;8.616;2023-05-10T01:12:27;99788.59;;;21.05;55.51
35716;BME280;21840;44.920;8.616;2023-05-10T01:14:53;99798.66;;;21.03;55.67
35716;BME280;21840;44.920;8.616;2023-05-10T01:17:19;99790.00;;;21.08;55.59
35716;BME280;21840;44.920;8.616;2023-05-10T01:19:46;99783.47;;;21.04;55.58
35716;BME280;21840;44.920;8.616;2023-05-10T01:25:20;99782.50;;;20.98;56.08
35716;BME280;21840;44.920;8.616;2023-05-10T01:27:47;99783.44;;;21.10;55.99
35716;BME280;21840;44.920;8.616;2023-05-10T01:32:55;99780.63;;;20.99;56.58
35716;BME280;21840;44.920;8.616;2023-05-10T01:38:12;99780.06;;;20.97;56.58
35716;BME280;21840;44.920;8.616;2023-05-10T01:43:30;99781.88;;;20.96;56.69
35716;BME280;21840;44.920;8.616;2023-05-10T01:48:23;99778.34;;;20.77;56.90
35716;BME280;21840;44.920;8.616;2023-05-10T01:50:52;99772.56;;;20.80;57.11
35716;BME280;21840;44.920;8.616;2023-05-10T01:53:18;99768.94;;;20.68;57.01
35716;BME280;21840;44.920;8.616;2023-05-10T01:55:49;99766.81;;;20.45;57.76
35716;BME280;21840;44.920;8.616;2023-05-10T01:58:27;99765.03;;;20.32;58.00
35716;BME280;21840;44.920;8.616;2023-05-10T02:00:53;99767.47;;;20.34;57.99
35716;BME280;21840;44.920;8.616;2023-05-10T02:03:20;99770.59;;;20.24;58.16
35716;BME280;21840;44.920;8.616;2023-05-10T02:05:50;99759.72;;;20.25;58.37
35716;BME280;21840;44.920;8.616;2023-05-10T02:08:20;99764.78;;;19.95;58.81
35716;BME280;21840;44.920;8.616;2023-05-10T02:10:47;99769.13;;;19.90;58.84
35716;BME280;21840;44.920;8.616;2023-05-10T02:13:14;99767.19;;;20.10;58.65
35716;BME280;21840;44.920;8.616;2023-05-10T02:15:40;99758.56;;;20.15;59.01
35716;BME280;21840;44.920;8.616;2023-05-10T02:18:06;99767.56;;;20.14;59.35
35716;BME280;21840;44.920;8.616;2023-05-10T02:20:33;99765.16;;;20.06;59.78
35716;BME280;21840;44.920;8.616;2023-05-10T02:23:00;99763.13;;;19.94;60.20
35716;BME280;21840;44.920;8.616;2023-05-10T02:25:26;99760.69;;;19.93;60.25
35716;BME280;21840;44.920;8.616;2023-05-10T02:27:55;99753.50;;;20.00;60.14
35716;BME280;21840;44.920;8.616;2023-05-10T02:30:21;99756.56;;;20.03;60.28
35716;BME280;21840;44.920;8.616;2023-05-10T02:32:49;99751.63;;;20.07;60.40
35716;BME280;21840;44.920;8.616;2023-05-10T02:35:16;99749.16;;;20.06;60.38
35716;BME280;21840;44.920;8.616;2023-05-10T02:37:41;99746.75;;;19.97;60.59
35716;BME280;21840;44.920;8.616;2023-05-10T02:40:07;99748.00;;;19.88;60.60
35716;BME280;21840;44.920;8.616;2023-05-10T02:42:35;99751.66;;;20.00;60.41
35716;BME280;21840;44.920;8.616;2023-05-10T02:45:05;99741.88;;;19.81;60.59
35716;BME280;21840;44.920;8.616;2023-05-10T02:47:32;99749.25;;;19.86;60.73
35716;BME280;21840;44.920;8.616;2023-05-10T02:49:58;99741.63;;;19.89;60.52
35716;BME280;21840;44.920;8.616;2023-05-10T02:52:28;99740.38;;;19.98;60.32
35716;BME280;21840;44.920;8.616;2023-05-10T02:54:55;99746.56;;;19.86;60.48
35716;BME280;21840;44.920;8.616;2023-05-10T02:57:26;99745.31;;;19.95;60.04
35716;BME280;21840;44.920;8.616;2023-05-10T02:59:52;99744.09;;;19.97;60.23
35716;BME280;21840;44.920;8.616;2023-05-10T03:02:17;99745.94;;;19.90;60.00
35716;BME280;21840;44.920;8.616;2023-05-10T03:04:43;99746.31;;;20.00;59.68
35716;BME280;21840;44.920;8.616;2023-05-10T03:07:09;99748.72;;;20.09;59.37
35716;BME280;21840;44.920;8.616;2023-05-10T03:09:34;99752.00;;;20.11;59.30
35716;BME280;21840;44.920;8.616;2023-05-10T03:17:10;99750.88;;;19.87;59.39
35716;BME280;21840;44.920;8.616;2023-05-10T03:19:46;99750.06;;;19.86;59.04
35716;BME280;21840;44.920;8.616;2023-05-10T03:22:13;99759.91;;;19.79;59.15
35716;BME280;21840;44.920;8.616;2023-05-10T03:24:43;99755.00;;;19.76;59.18
35716;BME280;21840;44.920;8.616;2023-05-10T03:27:10;99751.28;;;19.83;59.04
35716;BME280;21840;44.920;8.616;2023-05-10T03:29:37;99748.00;;;19.95;58.70
35716;BME280;21840;44.920;8.616;2023-05-10T03:32:03;99757.69;;;19.76;58.87
35716;BME280;21840;44.920;8.616;2023-05-10T03:34:30;99760.78;;;19.59;58.99
35716;BME280;21840;44.920;8.616;2023-05-10T03:36:56;99763.84;;;19.56;58.70
35716;BME280;21840;44.920;8.616;2023-05-10T03:39:23;99757.69;;;19.49;58.86
35716;BME280;21840;44.920;8.616;2023-05-10T03:41:53;99768.16;;;19.51;58.67
35716;BME280;21840;44.920;8.616;2023-05-10T03:44:19;99769.59;;;19.47;58.73
35716;BME280;21840;44.920;8.616;2023-05-10T03:46:45;99772.25;;;19.60;58.59
35716;BME280;21840;44.920;8.616;2023-05-10T03:49:11;99772.28;;;19.40;58.98
35716;BME280;21840;44.920;8.616;2023-05-10T03:51:37;99772.91;;;19.42;58.73
35716;BME280;21840;44.920;8.616;2023-05-10T03:54:02;99769.22;;;19.30;58.86
35716;BME280;21840;44.920;8.616;2023-05-10T03:56:28;99778.66;;;19.12;58.95
35716;BME280;21840;44.920;8.616;2023-05-10T03:58:53;99782.31;;;19.11;59.10
35716;BME280;21840;44.920;8.616;2023-05-10T04:01:19;99786.41;;;19.01;59.19
35716;BME280;21840;44.920;8.616;2023-05-10T04:03:47;99791.13;;;18.85;59.50
35716;BME280;21840;44.920;8.616;2023-05-10T04:06:12;99796.84;;;18.89;59.56
35716;BME280;21840;44.920;8.616;2023-05-10T04:08:38;99789.25;;;18.79;60.14
35716;BME280;21840;44.920;8.616;2023-05-10T04:11:04;99795.22;;;18.88;59.68
35716;BME280;21840;44.920;8.616;2023-05-10T04:13:30;99808.69;;;18.86;59.80
35716;BME280;21840;44.920;8.616;2023-05-10T04:15:55;99813.16;;;18.72;60.10
35716;BME280;21840;44.920;8.616;2023-05-10T04:18:21;99817.66;;;18.65;60.46
35716;BME280;21840;44.920;8.616;2023-05-10T04:20:46;99813.69;;;18.41;61.00
35716;BME280;21840;44.920;8.616;2023-05-10T04:23:11;99826.16;;;18.41;60.85
35716;BME280;21840;44.920;8.616;2023-05-10T04:25:39;99827.75;;;18.28;61.34
35716;BME280;21840;44.920;8.616;2023-05-10T04:28:04;99824.31;;;18.35;61.18
35716;BME280;21840;44.920;8.616;2023-05-10T04:30:30;99832.66;;;18.25;61.57
35716;BME280;21840;44.920;8.616;2023-05-10T04:32:55;99839.09;;;18.09;61.90
35716;BME280;21840;44.920;8.616;2023-05-10T04:35:21;99840.28;;;18.00;61.87
35716;BME280;21840;44.920;8.616;2023-05-10T04:37:46;99836.78;;;17.93;61.59
35716;BME280;21840;44.920;8.616;2023-05-10T04:40:12;99845.94;;;17.90;61.43
35716;BME280;21840;44.920;8.616;2023-05-10T04:42:39;99835.66;;;17.80;61.43
35716;BME280;21840;44.920;8.616;2023-05-10T04:45:05;99827.34;;;17.90;60.93
35716;BME280;21840;44.920;8.616;2023-05-10T04:47:30;99826.63;;;17.75;61.09
35716;BME280;21840;44.920;8.616;2023-05-10T04:49:56;99821.91;;;17.77;60.59
35716;BME280;21840;44.920;8.616;2023-05-10T04:52:21;99831.59;;;17.84;60.40
35716;BME280;21840;44.920;8.616;2023-05-10T04:54:47;99826.34;;;17.63;60.86
35716;BME280;21840;44.920;8.616;2023-05-10T04:57:12;99822.88;;;17.69;60.92
35716;BME280;21840;44.920;8.616;2023-05-10T04:59:37;99820.97;;;17.56;60.97
35716;BME280;21840;44.920;8.616;2023-05-10T05:02:03;99799.34;;;17.59;61.20
35716;BME280;21840;44.920;8.616;2023-05-10T05:04:29;99788.06;;;17.51;61.41
35716;BME280;21840;44.920;8.616;2023-05-10T05:06:56;99773.19;;;17.56;61.59
35716;BME280;21840;44.920;8.616;2023-05-10T05:09:21;99773.06;;;17.71;61.23
35716;BME280;21840;44.920;8.616;2023-05-10T05:11:47;99802.63;;;17.61;61.24
35716;BME280;21840;44.920;8.616;2023-05-10T05:14:12;99811.03;;;17.65;61.04
35716;BME280;21840;44.920;8.616;2023-05-10T05:16:38;99831.53;;;18.06;60.18
35716;BME280;21840;44.920;8.616;2023-05-10T05:19:03;99854.09;;;17.88;60.42
35716;BME280;21840;44.920;8.616;2023-05-10T05:21:29;99854.38;;;18.00;59.94
35716;BME280;21840;44.920;8.616;2023-05-10T05:23:54;99860.94;;;18.04;60.01
35716;BME280;21840;44.920;8.616;2023-05-10T05:26:19;99859.50;;;18.02;60.01
35716;BME280;21840;44.920;8.616;2023-05-10T05:28:45;99872.97;;;18.00;59.93
35716;BME280;21840;44.920;8.616;2023-05-10T05:31:10;99869.63;;;17.85;60.09
35716;BME280;21840;44.920;8.616;2023-05-10T05:33:36;99874.44;;;18.03;59.60
35716;BME280;21840;44.920;8.616;2023-05-10T05:36:02;99869.47;;;17.93;59.48
35716;BME280;21840;44.920;8.616;2023-05-10T05:38:28;99876.28;;;18.02;59.51
35716;BME280;21840;44.920;8.616;2023-05-10T05:40:53;99890.84;;;18.13;59.45
35716;BME280;21840;44.920;8.616;2023-05-10T05:43:19;99891.94;;;18.25;59.01
35716;BME280;21840;44.920;8.616;2023-05-10T05:45:44;99891.25;;;18.17;59.20
35716;BME280;21840;44.920;8.616;2023-05-10T05:48:10;99898.06;;;18.26;58.55
35716;BME280;21840;44.920;8.616;2023-05-10T05:50:35;99906.75;;;18.48;58.17
35716;BME280;21840;44.920;8.616;2023-05-10T05:53:01;99913.91;;;18.89;57.56
35716;BME280;21840;44.920;8.616;2023-05-10T05:55:27;99919.44;;;18.87;57.35
35716;BME280;21840;44.920;8.616;2023-05-10T05:57:52;99932.63;;;18.74;57.29
35716;BME280;21840;44.920;8.616;2023-05-10T06:00:18;99920.91;;;19.03;57.07
35716;BME280;21840;44.920;8.616;2023-05-10T06:02:44;99921.09;;;19.02;56.57
35716;BME280;21840;44.920;8.616;2023-05-10T06:05:10;99925.84;;;19.13;56.71
35716;BME280;21840;44.920;8.616;2023-05-10T06:07:35;99930.75;;;19.03;56.75
35716;BME280;21840;44.920;8.616;2023-05-10T06:10:01;99932.00;;;18.65;56.99
35716;BME280;21840;44.920;8.616;2023-05-10T06:12:28;99934.34;;;18.82;57.08
35716;BME280;21840;44.920;8.616;2023-05-10T06:14:53;99940.53;;;18.95;56.71
35716;BME280;21840;44.920;8.616;2023-05-10T06:17:19;99944.41;;;18.93;56.33
35716;BME280;21840;44.920;8.616;2023-05-10T06:19:44;99947.47;;;18.90;56.31
35716;BME280;21840;44.920;8.616;2023-05-10T06:22:12;99963.09;;;18.65;56.66
35716;BME280;21840;44.920;8.616;2023-05-10T06:24:38;99963.00;;;18.86;56.27
35716;BME280;21840;44.920;8.616;2023-05-10T06:27:04;99969.44;;;18.64;56.24
35716;BME280;21840;44.920;8.616;2023-05-10T06:29:29;99968.09;;;18.46;56.59
35716;BME280;21840;44.920;8.616;2023-05-10T06:31:54;99976.31;;;18.51;56.13
35716;BME280;21840;44.920;8.616;2023-05-10T06:34:20;99996.47;;;18.32;56.74
35716;BME280;21840;44.920;8.616;2023-05-10T06:36:45;99990.75;;;18.36;56.74
35716;BME280;21840;44.920;8.616;2023-05-10T06:39:11;99988.91;;;18.36;56.07
35716;BME280;21840;44.920;8.616;2023-05-10T06:41:37;99981.97;;;18.42;55.99
35716;BME280;21840;44.920;8.616;2023-05-10T06:44:02;99982.81;;;18.42;55.93
35716;BME280;21840;44.920;8.616;2023-05-10T06:46:28;99989.25;;;18.61;55.45
35716;BME280;21840;44.920;8.616;2023-05-10T06:48:54;99994.28;;;18.43;56.03
35716;BME280;21840;44.920;8.616;2023-05-10T06:51:19;99993.94;;;18.59;55.13
35716;BME280;21840;44.920;8.616;2023-05-10T06:53:46;100008.72;;;18.68;54.81
35716;BME280;21840;44.920;8.616;2023-05-10T06:56:11;100019.50;;;18.53;55.62
35716;BME280;21840;44.920;8.616;2023-05-10T06:58:37;100015.69;;;18.69;54.93
35716;BME280;21840;44.920;8.616;2023-05-10T07:01:03;100012.81;;;19.06;53.84
35716;BME280;21840;44.920;8.616;2023-05-10T07:03:29;100025.66;;;18.89;54.17
35716;BME280;21840;44.920;8.616;2023-05-10T07:05:59;100035.75;;;18.72;54.26
35716;BME280;21840;44.920;8.616;2023-05-10T07:08:24;100029.19;;;18.33;55.48
35716;BME280;21840;44.920;8.616;2023-05-10T07:10:50;100039.16;;;18.59;55.07
35716;BME280;21840;44.920;8.616;2023-05-10T07:13:15;100045.66;;;18.50;55.16
35716;BME280;21840;44.920;8.616;2023-05-10T07:15:41;100039.31;;;18.51;55.03
35716;BME280;21840;44.920;8.616;2023-05-10T07:18:07;100035.94;;;18.36;55.37
35716;BME280;21840;44.920;8.616;2023-05-10T07:20:32;100041.91;;;18.72;54.71
35716;BME280;21840;44.920;8.616;2023-05-10T07:22:58;100042.28;;;18.69;54.26
35716;BME280;21840;44.920;8.616;2023-05-10T07:25:23;100040.50;;;18.77;54.00
35716;BME280;21840;44.920;8.616;2023-05-10T07:27:49;100044.81;;;19.12;53.70
35716;BME280;21840;44.920;8.616;2023-05-10T07:30:14;100044.34;;;19.02;53.53
35716;BME280;21840;44.920;8.616;2023-05-10T07:32:40;100037.25;;;19.23;53.48
35716;BME280;21840;44.920;8.616;2023-05-10T07:35:07;100035.00;;;19.26;52.85
35716;BME280;21840;44.920;8.616;2023-05-10T07:37:32;100041.88;;;19.55;52.21
35716;BME280;21840;44.920;8.616;2023-05-10T07:39:58;100044.69;;;19.40;52.23
35716;BME280;21840;44.920;8.616;2023-05-10T07:42:24;100045.47;;;19.34;52.53
35716;BME280;21840;44.920;8.616;2023-05-10T07:44:49;100043.16;;;19.86;51.84
35716;BME280;21840;44.920;8.616;2023-05-10T07:47:15;100046.25;;;19.96;51.50
35716;BME280;21840;44.920;8.616;2023-05-10T07:49:40;100044.84;;;20.00;51.05
35716;BME280;21840;44.920;8.616;2023-05-10T07:52:05;100051.78;;;20.21;50.68
35716;BME280;21840;44.920;8.616;2023-05-10T07:54:31;100042.16;;;20.34;49.79
35716;BME280;21840;44.920;8.616;2023-05-10T07:56:56;100047.50;;;20.40;49.95
35716;BME280;21840;44.920;8.616;2023-05-10T07:59:22;100042.78;;;20.56;49.57
35716;BME280;21840;44.920;8.616;2023-05-10T08:01:47;100032.41;;;20.93;49.41
35716;BME280;21840;44.920;8.616;2023-05-10T08:04:13;100039.47;;;20.47;49.31
35716;BME280;21840;44.920;8.616;2023-05-10T08:06:39;100037.00;;;20.52;49.24
35716;BME280;21840;44.920;8.616;2023-05-10T08:09:04;100035.75;;;20.75;48.83
35716;BME280;21840;44.920;8.616;2023-05-10T08:11:30;100029.19;;;20.77;48.93
35716;BME280;21840;44.920;8.616;2023-05-10T08:13:55;100027.69;;;20.95;48.22
35716;BME280;21840;44.920;8.616;2023-05-10T08:16:20;100035.22;;;21.11;48.26
35716;BME280;21840;44.920;8.616;2023-05-10T08:18:46;100044.25;;;21.10;47.85
35716;BME280;21840;44.920;8.616;2023-05-10T08:21:12;100056.94;;;21.21;47.48
35716;BME280;21840;44.920;8.616;2023-05-10T08:23:38;100052.81;;;21.32;46.98
35716;BME280;21840;44.920;8.616;2023-05-10T08:26:04;100060.47;;;21.08;47.69
35716;BME280;21840;44.920;8.616;2023-05-10T08:28:29;100072.41;;;21.64;46.76
35716;BME280;21840;44.920;8.616;2023-05-10T08:30:55;100056.78;;;21.93;46.16
35716;BME280;21840;44.920;8.616;2023-05-10T08:33:22;100050.94;;;22.03;45.67
35716;BME280;21840;44.920;8.616;2023-05-10T08:35:48;100044.63;;;22.47;45.28
35716;BME280;21840;44.920;8.616;2023-05-10T08:38:13;100055.03;;;22.37;45.34
35716;BME280;21840;44.920;8.616;2023-05-10T08:40:42;100051.91;;;22.08;45.50
35716;BME280;21840;44.920;8.616;2023-05-10T08:43:11;100050.22;;;22.14;45.35
35716;BME280;21840;44.920;8.616;2023-05-10T08:45:40;100050.34;;;21.69;46.88
35716;BME280;21840;44.920;8.616;2023-05-10T08:48:06;100059.69;;;21.60;46.94
35716;BME280;21840;44.920;8.616;2023-05-10T08:50:33;100064.91;;;21.35;47.15
35716;BME280;21840;44.920;8.616;2023-05-10T08:53:00;100061.63;;;21.32;47.64
35716;BME280;21840;44.920;8.616;2023-05-10T08:55:29;100050.34;;;21.69;46.55
35716;BME280;21840;44.920;8.616;2023-05-10T08:57:58;100052.72;;;21.52;46.35
35716;BME280;21840;44.920;8.616;2023-05-10T09:00:24;100058.72;;;21.34;46.84
35716;BME280;21840;44.920;8.616;2023-05-10T09:02:50;100060.13;;;21.50;46.69
35716;BME280;21840;44.920;8.616;2023-05-10T09:05:15;100052.50;;;21.53;46.11
35716;BME280;21840;44.920;8.616;2023-05-10T09:07:42;100057.56;;;21.68;45.39
35716;BME280;21840;44.920;8.616;2023-05-10T09:10:11;100061.09;;;21.62;45.90
35716;BME280;21840;44.920;8.616;2023-05-10T09:12:38;100060.03;;;21.70;46.01
35716;BME280;21840;44.920;8.616;2023-05-10T09:15:04;100058.47;;;22.12;45.16
35716;BME280;21840;44.920;8.616;2023-05-10T09:17:30;100058.81;;;21.97;45.93
35716;BME280;21840;44.920;8.616;2023-05-10T09:19:59;100050.91;;;22.09;46.46
35716;BME280;21840;44.920;8.616;2023-05-10T09:22:25;100053.78;;;22.08;45.30
35716;BME280;21840;44.920;8.616;2023-05-10T09:25:03;100054.28;;;21.98;45.33
35716;BME280;21840;44.920;8.616;2023-05-10T09:27:29;100053.84;;;22.26;46.01
35716;BME280;21840;44.920;8.616;2023-05-10T09:29:54;100065.16;;;21.96;45.05
35716;BME280;21840;44.920;8.616;2023-05-10T09:32:20;100060.94;;;21.57;46.36
35716;BME280;21840;44.920;8.616;2023-05-10T09:34:45;100053.03;;;21.69;45.65
35716;BME280;21840;44.920;8.616;2023-05-10T09:37:14;100049.66;;;21.80;44.32
35716;BME280;21840;44.920;8.616;2023-05-10T09:39:40;100060.81;;;21.77;44.47
35716;BME280;21840;44.920;8.616;2023-05-10T09:42:07;100054.06;;;22.00;44.32
35716;BME280;21840;44.920;8.616;2023-05-10T09:44:33;100059.09;;;21.83;43.51
35716;BME280;21840;44.920;8.616;2023-05-10T09:47:02;100065.88;;;21.85;44.06
35716;BME280;21840;44.920;8.616;2023-05-10T09:49:28;100068.13;;;21.88;43.20
35716;BME280;21840;44.920;8.616;2023-05-10T09:52:12;100066.03;;;21.90;43.69
35716;BME280;21840;44.920;8.616;2023-05-10T09:54:37;100068.69;;;21.97;43.69
35716;BME280;21840;44.920;8.616;2023-05-10T09:57:03;100077.13;;;21.62;44.11
35716;BME280;21840;44.920;8.616;2023-05-10T09:59:28;100069.97;;;21.88;44.40
35716;BME280;21840;44.920;8.616;2023-05-10T10:01:57;100073.47;;;22.20;43.16
35716;BME280;21840;44.920;8.616;2023-05-10T10:04:23;100074.81;;;22.04;42.86
35716;BME280;21840;44.920;8.616;2023-05-10T10:06:58;100066.34;;;22.07;42.41
35716;BME280;21840;44.920;8.616;2023-05-10T10:09:24;100067.66;;;21.91;43.78
35716;BME280;21840;44.920;8.616;2023-05-10T10:11:51;100076.53;;;21.53;43.50
35716;BME280;21840;44.920;8.616;2023-05-10T10:14:18;100071.88;;;21.81;43.87
35716;BME280;21840;44.920;8.616;2023-05-10T10:16:43;100068.56;;;21.85;43.67
35716;BME280;21840;44.920;8.616;2023-05-10T10:19:09;100073.25;;;21.51;44.33
35716;BME280;21840;44.920;8.616;2023-05-10T10:21:35;100060.22;;;21.68;44.47
35716;BME280;21840;44.920;8.616;2023-05-10T10:24:01;100062.63;;;21.45;45.03
35716;BME280;21840;44.920;8.616;2023-05-10T10:26:26;100058.09;;;21.45;45.32
35716;BME280;21840;44.920;8.616;2023-05-10T10:28:56;100060.31;;;21.55;45.14
35716;BME280;21840;44.920;8.616;2023-05-10T10:36:22;100067.94;;;22.15;43.34
35716;BME280;21840;44.920;8.616;2023-05-10T10:46:58;100072.69;;;22.81;41.21
35716;BME280;21840;44.920;8.616;2023-05-10T10:49:24;100066.75;;;22.36;41.82
35716;BME280;21840;44.920;8.616;2023-05-10T10:54:34;100066.66;;;21.92;42.12
35716;BME280;21840;44.920;8.616;2023-05-10T10:57:12;100057.84;;;21.85;42.74
35716;BME280;21840;44.920;8.616;2023-05-10T10:59:42;100057.56;;;22.00;42.57
35716;BME280;21840;44.920;8.616;2023-05-10T11:04:55;100051.56;;;22.55;42.60
35716;BME280;21840;44.920;8.616;2023-05-10T11:07:21;100063.63;;;23.01;41.49
35716;BME280;21840;44.920;8.616;2023-05-10T11:09:47;100063.97;;;22.49;42.88
35716;BME280;21840;44.920;8.616;2023-05-10T11:12:12;100056.47;;;22.58;42.27
35716;BME280;21840;44.920;8.616;2023-05-10T11:14:37;100055.59;;;22.82;41.74
35716;BME280;21840;44.920;8.616;2023-05-10T11:17:21;100048.13;;;23.40;40.92
35716;BME280;21840;44.920;8.616;2023-05-10T11:20:02;100053.56;;;23.63;40.52
35716;BME280;21840;44.920;8.616;2023-05-10T11:22:28;100039.28;;;23.21;41.56
35716;BME280;21840;44.920;8.616;2023-05-10T11:24:57;100045.94;;;22.81;40.84
35716;BME280;21840;44.920;8.616;2023-05-10T11:27:28;100050.25;;;23.50;40.48
35716;BME280;21840;44.920;8.616;2023-05-10T11:29:54;100043.47;;;23.17;41.05
35716;BME280;21840;44.920;8.616;2023-05-10T11:32:19;100037.59;;;23.08;40.76
35716;BME280;21840;44.920;8.616;2023-05-10T11:34:46;100035.06;;;22.95;41.79
35716;BME280;21840;44.920;8.616;2023-05-10T11:37:13;100031.03;;;22.86;42.32
35716;BME280;21840;44.920;8.616;2023-05-10T11:39:38;100028.97;;;22.26;41.89
35716;BME280;21840;44.920;8.616;2023-05-10T11:42:04;100028.13;;;22.50;42.36
35716;BME280;21840;44.920;8.616;2023-05-10T11:44:30;100026.34;;;23.18;41.63
35716;BME280;21840;44.920;8.616;2023-05-10T11:47:00;100021.31;;;23.40;40.13
35716;BME280;21840;44.920;8.616;2023-05-10T11:49:26;100020.31;;;23.53;40.86
35716;BME280;21840;44.920;8.616;2023-05-10T11:51:51;100017.66;;;23.95;39.60
35716;BME280;21840;44.920;8.616;2023-05-10T11:54:16;100017.00;;;23.69;39.43
35716;BME280;21840;44.920;8.616;2023-05-10T11:56:42;100018.78;;;23.75;39.89
35716;BME280;21840;44.920;8.616;2023-05-10T11:59:07;100015.41;;;23.50;40.91
35716;BME280;21840;44.920;8.616;2023-05-10T12:01:33;100013.41;;;23.15;41.74
35716;BME280;21840;44.920;8.616;2023-05-10T12:03:58;100010.75;;;23.45;41.21
35716;BME280;21840;44.920;8.616;2023-05-10T12:06:29;100009.59;;;23.95;40.73
35716;BME280;21840;44.920;8.616;2023-05-10T12:08:56;100006.94;;;23.64;39.24
35716;BME280;21840;44.920;8.616;2023-05-10T12:11:24;100013.13;;;23.65;39.57
35716;BME280;21840;44.920;8.616;2023-05-10T12:13:49;100004.22;;;23.53;39.25
35716;BME280;21840;44.920;8.616;2023-05-10T12:16:19;100007.16;;;23.63;39.06
35716;BME280;21840;44.920;8.616;2023-05-10T12:18:49;99999.78;;;23.88;40.09
35716;BME280;21840;44.920;8.616;2023-05-10T12:21:16;99990.56;;;23.73;40.95
35716;BME280;21840;44.920;8.616;2023-05-10T12:23:41;99998.44;;;23.67;40.85
35716;BME280;21840;44.920;8.616;2023-05-10T12:26:10;99994.78;;;23.92;39.76
35716;BME280;21840;44.920;8.616;2023-05-10T12:28:36;99994.00;;;24.27;39.28
35716;BME280;21840;44.920;8.616;2023-05-10T12:31:02;99985.72;;;24.52;38.97
35716;BME280;21840;44.920;8.616;2023-05-10T12:33:34;99992.22;;;23.85;39.40
35716;BME280;21840;44.920;8.616;2023-05-10T12:36:00;99992.31;;;23.90;38.95
35716;BME280;21840;44.920;8.616;2023-05-10T12:38:26;99985.22;;;24.08;38.44
35716;BME280;21840;44.920;8.616;2023-05-10T12:40:54;99988.38;;;23.93;38.41
35716;BME280;21840;44.920;8.616;2023-05-10T12:43:20;99984.88;;;24.40;37.82
35716;BME280;21840;44.920;8.616;2023-05-10T12:45:45;99976.25;;;24.49;38.15
35716;BME280;21840;44.920;8.616;2023-05-10T12:48:13;99980.06;;;24.65;37.09
35716;BME280;21840;44.920;8.616;2023-05-10T12:50:38;99982.97;;;24.75;36.72
35716;BME280;21840;44.920;8.616;2023-05-10T12:53:04;99980.47;;;24.86;36.38
35716;BME280;21840;44.920;8.616;2023-05-10T12:55:32;99987.13;;;24.95;36.55
35716;BME280;21840;44.920;8.616;2023-05-10T12:57:57;99990.25;;;25.32;36.29
35716;BME280;21840;44.920;8.616;2023-05-10T13:00:23;99986.59;;;25.22;36.28
35716;BME280;21840;44.920;8.616;2023-05-10T13:02:48;99988.56;;;25.43;35.51
35716;BME280;21840;44.920;8.616;2023-05-10T13:05:14;99979.31;;;25.68;35.31
35716;BME280;21840;44.920;8.616;2023-05-10T13:07:39;99972.88;;;25.52;35.96
35716;BME280;21840;44.920;8.616;2023-05-10T13:10:05;99981.13;;;25.16;35.21
35716;BME280;21840;44.920;8.616;2023-05-10T13:12:37;99978.13;;;25.30;35.10
35716;BME280;21840;44.920;8.616;2023-05-10T13:15:02;99970.56;;;25.27;35.37
35716;BME280;21840;44.920;8.616;2023-05-10T13:17:28;99962.84;;;25.47;35.42
35716;BME280;21840;44.920;8.616;2023-05-10T13:19:53;99961.03;;;25.07;36.55
35716;BME280;21840;44.920;8.616;2023-05-10T13:22:19;99949.41;;;25.47;35.89
35716;BME280;21840;44.920;8.616;2023-05-10T13:24:47;99946.59;;;25.25;35.88
35716;BME280;21840;44.920;8.616;2023-05-10T13:27:13;99950.53;;;25.34;35.95
35716;BME280;21840;44.920;8.616;2023-05-10T13:29:38;99949.59;;;25.00;36.68